createdAt,value
2019-03-30T00:01:17.515Z,11.53
2019-03-30T00:03:48.233Z,9.67
2019-03-30T00:06:19.621Z,9.17
2019-03-30T00:08:50.547Z,9.03
2019-03-30T00:11:21.681Z,11.20
2019-03-30T00:13:52.123Z,13.10
2019-03-30T00:16:22.747Z,13.00
2019-03-30T00:18:53.895Z,10.97
2019-03-30T00:21:24.824Z,9.70
2019-03-30T00:23:55.626Z,9.83
2019-03-30T00:26:27.464Z,12.83
2019-03-30T00:28:58.274Z,10.40
2019-03-30T00:31:29.208Z,10.13
2019-03-30T00:34:00.083Z,10.37
2019-03-30T00:36:31.065Z,9.67
2019-03-30T00:39:05.429Z,10.97
2019-03-30T00:41:36.913Z,9.63
2019-03-30T00:44:09.615Z,6.23
2019-03-30T00:46:40.482Z,7.10
2019-03-30T00:49:12.778Z,8.33
2019-03-30T00:51:43.811Z,10.23
2019-03-30T00:54:14.552Z,9.40
2019-03-30T00:56:45.978Z,9.63
2019-03-30T00:59:17.198Z,8.80
2019-03-30T01:01:47.917Z,9.90
2019-03-30T01:04:18.588Z,10.70
2019-03-30T01:06:50.927Z,12.73
2019-03-30T01:09:21.671Z,12.00
2019-03-30T01:11:52.513Z,12.43
2019-03-30T01:14:23.106Z,12.40
2019-03-30T01:16:54.492Z,11.77
2019-03-30T01:19:25.777Z,14.47
2019-03-30T01:21:58.587Z,12.00
2019-03-30T01:24:29.993Z,13.53
2019-03-30T01:27:00.930Z,13.60
2019-03-30T01:29:31.870Z,12.17
2019-03-30T01:32:03.221Z,11.80
2019-03-30T01:34:34.517Z,11.50
2019-03-30T01:37:06.411Z,9.13
2019-03-30T01:39:37.775Z,8.47
2019-03-30T01:42:08.970Z,8.03
2019-03-30T01:44:41.334Z,10.20
2019-03-30T01:47:12.369Z,8.70
2019-03-30T01:49:42.820Z,7.60
2019-03-30T01:52:14.221Z,8.00
2019-03-30T01:54:45.336Z,7.63
2019-03-30T01:57:16.888Z,8.13
2019-03-30T02:00:09.965Z,7.67
2019-03-30T02:02:41.655Z,8.93
2019-03-30T02:05:16.081Z,9.77
2019-03-30T02:07:48.583Z,8.53
2019-03-30T02:10:43.222Z,7.07
2019-03-30T02:13:14.417Z,7.80
2019-03-30T02:15:46.797Z,9.60
2019-03-30T02:18:19.128Z,9.80
2019-03-30T02:20:49.996Z,11.13
2019-03-30T02:23:22.014Z,8.97
2019-03-30T02:25:52.605Z,9.03
2019-03-30T02:28:24.257Z,9.10
2019-03-30T02:30:55.029Z,8.60
2019-03-30T02:33:25.567Z,11.93
2019-03-30T02:35:57.144Z,9.30
2019-03-30T02:38:27.983Z,10.90
2019-03-30T02:40:58.675Z,14.87
2019-03-30T02:43:29.531Z,11.30
2019-03-30T02:46:01.248Z,14.07
2019-03-30T02:48:31.668Z,19.40
2019-03-30T02:51:02.402Z,20.33
2019-03-30T02:53:33.010Z,17.17
2019-03-30T02:56:04.060Z,17.73
2019-03-30T02:58:34.708Z,11.57
2019-03-30T03:01:05.397Z,11.67
2019-03-30T03:03:35.987Z,10.33
2019-03-30T03:06:06.673Z,9.47
2019-03-30T03:08:37.723Z,12.30
2019-03-30T03:11:08.177Z,13.03
2019-03-30T03:13:38.758Z,11.83
2019-03-30T03:16:09.465Z,13.87
2019-03-30T03:18:39.928Z,14.77
2019-03-30T03:21:10.552Z,13.83
2019-03-30T03:23:43.036Z,13.83
2019-03-30T03:26:13.739Z,14.00
2019-03-30T03:28:44.601Z,13.07
2019-03-30T03:31:15.060Z,13.33
2019-03-30T03:33:46.381Z,12.77
2019-03-30T03:36:20.090Z,11.87
2019-03-30T03:38:50.863Z,11.37
2019-03-30T03:41:21.954Z,12.03
2019-03-30T03:43:52.521Z,12.30
2019-03-30T03:46:23.121Z,12.43
2019-03-30T03:48:53.603Z,10.97
2019-03-30T03:51:26.141Z,12.10
2019-03-30T03:53:56.799Z,10.80
2019-03-30T03:56:27.273Z,11.10
2019-03-30T03:58:58.511Z,11.33
2019-03-30T04:01:28.922Z,11.53
2019-03-30T04:03:59.726Z,11.83
2019-03-30T04:06:31.995Z,11.67
2019-03-30T04:09:04.609Z,10.60
2019-03-30T04:11:35.585Z,11.43
2019-03-30T04:14:06.237Z,11.43
2019-03-30T04:16:36.938Z,11.37
2019-03-30T04:19:07.582Z,12.10
2019-03-30T04:21:44.208Z,12.20
2019-03-30T04:24:10.535Z,12.03
2019-03-30T04:26:41.883Z,12.23
2019-03-30T04:29:12.404Z,11.90
2019-03-30T04:31:43.062Z,11.73
2019-03-30T04:34:13.851Z,12.87
2019-03-30T04:36:44.493Z,12.13
2019-03-30T04:39:15.021Z,11.90
2019-03-30T04:41:45.851Z,12.10
2019-03-30T04:44:16.280Z,13.83
2019-03-30T04:46:46.901Z,13.30
2019-03-30T04:49:17.653Z,11.50
2019-03-30T04:51:57.440Z,11.13
2019-03-30T04:54:21.986Z,11.43
2019-03-30T04:56:52.492Z,12.37
2019-03-30T04:59:23.094Z,11.80
2019-03-30T05:01:53.842Z,13.27
2019-03-30T05:04:25.333Z,17.87
2019-03-30T05:06:56.061Z,17.23
2019-03-30T05:09:26.651Z,20.03
2019-03-30T05:11:57.344Z,17.77
2019-03-30T05:14:27.890Z,18.70
2019-03-30T05:16:58.952Z,17.90
2019-03-30T05:19:30.102Z,18.37
2019-03-30T05:22:11.567Z,20.10
2019-03-30T05:24:32.999Z,21.37
2019-03-30T05:27:04.533Z,23.37
2019-03-30T05:29:35.024Z,23.23
2019-03-30T05:32:05.659Z,23.40
2019-03-30T05:34:36.518Z,23.80
2019-03-30T05:37:07.039Z,22.63
2019-03-30T05:39:37.877Z,22.90
2019-03-30T05:42:08.352Z,20.03
2019-03-30T05:44:38.880Z,22.80
2019-03-30T05:47:09.271Z,23.80
2019-03-30T05:49:40.315Z,21.63
2019-03-30T05:52:25.531Z,22.47
2019-03-30T05:54:43.609Z,21.07
2019-03-30T05:57:15.030Z,21.97
2019-03-30T05:59:45.831Z,21.03
2019-03-30T06:02:16.644Z,21.47
2019-03-30T06:04:47.664Z,20.03
2019-03-30T06:07:18.298Z,21.00
2019-03-30T06:09:49.353Z,20.87
2019-03-30T06:12:20.220Z,21.30
2019-03-30T06:14:50.934Z,22.97
2019-03-30T06:17:22.025Z,22.00
2019-03-30T06:19:52.613Z,23.20
2019-03-30T06:22:23.060Z,25.10
2019-03-30T06:24:53.591Z,23.97
2019-03-30T06:27:24.997Z,23.73
2019-03-30T06:30:17.618Z,23.93
2019-03-30T06:32:48.019Z,23.87
2019-03-30T06:35:18.651Z,23.40
2019-03-30T06:37:49.181Z,23.93
2019-03-30T06:40:20.484Z,23.27
2019-03-30T06:42:51.279Z,24.10
2019-03-30T06:45:21.933Z,22.93
2019-03-30T06:47:52.724Z,22.70
2019-03-30T06:50:24.752Z,22.37
2019-03-30T06:52:58.667Z,23.30
2019-03-30T06:55:28.155Z,22.13
2019-03-30T06:57:58.798Z,22.60
2019-03-30T07:00:32.926Z,24.27
2019-03-30T07:03:04.883Z,24.63
2019-03-30T07:05:41.531Z,22.37
2019-03-30T07:08:13.917Z,25.03
2019-03-30T07:10:45.922Z,23.33
2019-03-30T07:13:16.694Z,22.77
2019-03-30T07:15:50.154Z,22.80
2019-03-30T07:18:22.371Z,21.30
2019-03-30T07:20:53.373Z,22.03
2019-03-30T07:23:24.128Z,21.13
2019-03-30T07:25:55.178Z,22.10
2019-03-30T07:28:27.973Z,23.80
2019-03-30T07:30:58.601Z,22.20
2019-03-30T07:33:29.553Z,22.00
2019-03-30T07:36:00.410Z,23.03
2019-03-30T07:38:31.219Z,22.23
2019-03-30T07:41:02.270Z,22.07
2019-03-30T07:43:32.765Z,20.37
2019-03-30T07:46:03.486Z,17.70
2019-03-30T07:48:34.677Z,19.03
2019-03-30T07:51:05.183Z,18.27
2019-03-30T07:53:44.315Z,17.90
2019-03-30T07:56:09.769Z,16.17
2019-03-30T07:58:40.360Z,20.30
2019-03-30T08:01:11.069Z,17.70
2019-03-30T08:03:41.777Z,16.00
2019-03-30T08:06:13.286Z,16.03
2019-03-30T08:08:44.187Z,18.10
2019-03-30T08:11:14.980Z,18.93
2019-03-30T08:13:45.682Z,18.77
2019-03-30T08:16:16.368Z,19.67
2019-03-30T08:18:47.188Z,21.10
2019-03-30T08:21:17.952Z,19.50
2019-03-30T08:23:50.364Z,19.30
2019-03-30T08:26:21.520Z,20.45
2019-03-30T08:28:53.737Z,19.40
2019-03-30T08:31:25.097Z,22.07
2019-03-30T08:33:56.165Z,25.32
2019-03-30T08:36:29.727Z,20.32
2019-03-30T08:39:00.274Z,20.72
2019-03-30T08:41:31.204Z,22.13
2019-03-30T08:44:02.439Z,21.93
2019-03-30T08:46:33.482Z,24.20
2019-03-30T08:49:04.626Z,19.50
2019-03-30T08:51:35.458Z,20.48
2019-03-30T08:54:06.013Z,25.17
2019-03-30T08:56:36.658Z,20.27
2019-03-30T08:59:07.239Z,19.42
2019-03-30T09:01:38.068Z,15.35
2019-03-30T09:04:08.622Z,16.73
2019-03-30T09:06:39.380Z,15.90
2019-03-30T09:09:10.128Z,17.73
2019-03-30T09:11:43.451Z,16.48
2019-03-30T09:14:13.593Z,17.73
2019-03-30T09:16:44.475Z,17.70
2019-03-30T09:19:16.978Z,17.57
2019-03-30T09:21:47.910Z,18.05
2019-03-30T09:24:18.585Z,17.65
2019-03-30T09:26:49.213Z,18.57
2019-03-30T09:29:20.644Z,18.60
2019-03-30T09:31:52.072Z,17.95
2019-03-30T09:34:22.556Z,19.00
2019-03-30T09:36:55.073Z,17.10
2019-03-30T09:39:26.690Z,19.50
2019-03-30T09:41:58.344Z,19.62
2019-03-30T09:44:29.518Z,20.60
2019-03-30T09:47:00.100Z,17.57
2019-03-30T09:49:31.248Z,16.87
2019-03-30T09:52:02.463Z,16.90
2019-03-30T09:54:33.338Z,17.42
2019-03-30T09:57:04.047Z,18.85
2019-03-30T09:59:35.109Z,18.80
2019-03-30T10:02:05.780Z,19.35
2019-03-30T10:04:37.135Z,18.37
2019-03-30T10:07:07.752Z,17.98
2019-03-30T10:09:39.052Z,19.60
2019-03-30T10:12:10.875Z,17.57
2019-03-30T10:14:42.066Z,18.57
2019-03-30T10:17:15.217Z,19.90
2019-03-30T10:20:03.685Z,21.15
2019-03-30T10:22:23.706Z,18.37
2019-03-30T10:24:58.377Z,18.27
2019-03-30T10:27:28.356Z,19.48
2019-03-30T10:29:59.931Z,19.85
2019-03-30T10:32:31.764Z,21.17
2019-03-30T10:35:02.919Z,22.25
2019-03-30T10:37:34.720Z,22.07
2019-03-30T10:40:07.616Z,23.73
2019-03-30T10:42:38.202Z,21.55
2019-03-30T10:45:09.077Z,20.45
2019-03-30T10:47:39.872Z,22.52
2019-03-30T10:50:11.016Z,21.73
2019-03-30T10:52:42.101Z,19.62
2019-03-30T10:55:12.732Z,20.80
2019-03-30T10:57:43.579Z,21.25
2019-03-30T11:00:17.357Z,21.80
2019-03-30T11:02:52.694Z,21.55
2019-03-30T11:05:23.877Z,22.75
2019-03-30T11:07:54.521Z,22.93
2019-03-30T11:10:25.007Z,24.02
2019-03-30T11:12:56.841Z,22.85
2019-03-30T11:15:27.510Z,24.95
2019-03-30T11:17:57.988Z,23.15
2019-03-30T11:20:28.707Z,21.27
2019-03-30T11:22:59.503Z,23.50
2019-03-30T11:25:30.245Z,23.65
2019-03-30T11:28:00.753Z,23.60
2019-03-30T11:30:32.252Z,24.10
2019-03-30T11:33:03.882Z,23.05
2019-03-30T11:35:34.722Z,25.20
2019-03-30T11:38:05.543Z,24.57
2019-03-30T11:40:36.970Z,24.23
2019-03-30T11:43:07.748Z,25.10
2019-03-30T11:45:38.326Z,26.77
2019-03-30T11:51:00.565Z,25.65
2019-03-30T11:53:32.298Z,25.23
2019-03-30T11:56:07.223Z,27.95
2019-03-30T11:58:38.414Z,24.25
2019-03-30T12:01:09.152Z,27.02
2019-03-30T12:03:41.479Z,24.00
2019-03-30T12:06:12.388Z,25.62
2019-03-30T12:08:44.424Z,23.90
2019-03-30T12:11:15.114Z,23.83
2019-03-30T12:13:45.808Z,25.20
2019-03-30T12:16:16.477Z,24.87
2019-03-30T12:18:47.039Z,22.45
2019-03-30T12:21:19.260Z,20.80
2019-03-30T12:23:49.778Z,23.65
2019-03-30T12:26:20.551Z,24.12
2019-03-30T12:28:51.233Z,25.72
2019-03-30T12:31:23.707Z,24.82
2019-03-30T12:33:54.447Z,25.15
2019-03-30T12:36:25.035Z,25.02
2019-03-30T12:38:56.854Z,24.85
2019-03-30T12:41:27.576Z,25.72
2019-03-30T12:43:58.434Z,25.75
2019-03-30T12:46:32.734Z,24.40
2019-03-30T12:49:03.529Z,23.95
2019-03-30T12:51:34.439Z,25.25
2019-03-30T12:54:05.160Z,23.77
2019-03-30T12:56:35.668Z,22.73
2019-03-30T12:59:06.369Z,24.52
2019-03-30T13:01:37.074Z,24.25
2019-03-30T13:04:07.865Z,24.87
2019-03-30T13:06:38.832Z,24.10
2019-03-30T13:09:09.648Z,23.65
2019-03-30T13:11:42.077Z,22.82
2019-03-30T13:14:12.736Z,24.52
2019-03-30T13:16:43.339Z,24.47
2019-03-30T13:19:13.795Z,25.00
2019-03-30T13:21:52.608Z,25.40
2019-03-30T13:24:17.946Z,23.90
2019-03-30T13:26:51.568Z,25.17
2019-03-30T13:29:22.342Z,25.72
2019-03-30T13:31:52.744Z,23.85
2019-03-30T13:34:23.361Z,22.98
2019-03-30T13:36:53.832Z,24.27
2019-03-30T13:39:24.455Z,24.72
2019-03-30T13:41:55.446Z,24.57
2019-03-30T13:44:26.100Z,24.30
2019-03-30T13:46:56.584Z,21.12
2019-03-30T13:49:29.663Z,23.87
2019-03-30T13:51:59.272Z,23.05
2019-03-30T13:54:29.781Z,23.70
2019-03-30T13:57:00.809Z,24.30
2019-03-30T13:59:33.726Z,22.42
2019-03-30T14:02:05.971Z,23.55
2019-03-30T14:04:37.135Z,22.40
2019-03-30T14:07:07.759Z,20.97
2019-03-30T14:09:38.576Z,20.77
2019-03-30T14:12:10.659Z,20.45
2019-03-30T14:14:41.203Z,18.77
2019-03-30T14:17:11.855Z,18.55
2019-03-30T14:19:42.441Z,18.98
2019-03-30T14:22:12.903Z,19.05
2019-03-30T14:24:43.581Z,20.25
2019-03-30T14:27:14.928Z,18.25
2019-03-30T14:29:45.690Z,18.77
2019-03-30T14:32:17.161Z,17.12
2019-03-30T14:34:47.575Z,17.73
2019-03-30T14:37:18.344Z,18.52
2019-03-30T14:39:49.512Z,17.98
2019-03-30T14:42:20.263Z,17.60
2019-03-30T14:44:51.637Z,17.35
2019-03-30T14:47:22.127Z,16.23
2019-03-30T14:49:54.547Z,15.50
2019-03-30T14:52:25.158Z,15.90
2019-03-30T14:54:55.945Z,15.68
2019-03-30T14:57:26.464Z,16.87
2019-03-30T14:59:57.172Z,15.20
2019-03-30T15:02:27.741Z,14.35
2019-03-30T15:05:00.969Z,14.98
2019-03-30T15:07:31.062Z,14.50
2019-03-30T15:10:01.753Z,15.43
2019-03-30T15:12:32.467Z,14.87
2019-03-30T15:15:03.186Z,15.17
2019-03-30T15:17:34.189Z,14.33
2019-03-30T15:20:10.375Z,15.32
2019-03-30T15:22:41.924Z,15.27
2019-03-30T15:25:12.703Z,15.37
2019-03-30T15:27:43.188Z,14.87
2019-03-30T15:30:16.142Z,13.77
2019-03-30T15:32:49.607Z,14.70
2019-03-30T15:35:21.392Z,13.47
2019-03-30T15:37:52.495Z,14.80
2019-03-30T15:40:23.518Z,14.57
2019-03-30T15:42:54.601Z,14.00
2019-03-30T15:45:27.128Z,13.37
2019-03-30T15:47:57.658Z,13.27
2019-03-30T15:50:28.474Z,14.17
2019-03-30T15:52:59.906Z,13.33
2019-03-30T15:55:31.314Z,13.47
2019-03-30T15:58:02.132Z,12.63
2019-03-30T16:00:32.839Z,12.80
2019-03-30T16:03:03.946Z,13.50
2019-03-30T16:05:34.611Z,13.77
2019-03-30T16:08:05.161Z,13.50
2019-03-30T16:10:35.707Z,13.10
2019-03-30T16:13:06.343Z,13.40
2019-03-30T16:15:37.581Z,12.53
2019-03-30T16:18:08.454Z,13.43
2019-03-30T16:20:38.904Z,12.87
2019-03-30T16:23:09.611Z,12.70
2019-03-30T16:25:40.599Z,12.43
2019-03-30T16:28:11.132Z,12.97
2019-03-30T16:30:41.712Z,12.23
2019-03-30T16:33:15.111Z,11.70
2019-03-30T16:35:46.338Z,12.77
2019-03-30T16:38:17.172Z,12.30
2019-03-30T16:40:47.777Z,12.40
2019-03-30T16:43:18.629Z,12.77
2019-03-30T16:45:49.952Z,12.60
2019-03-30T16:48:20.848Z,13.00
2019-03-30T16:50:51.570Z,13.20
2019-03-30T16:53:22.474Z,17.17
2019-03-30T16:55:53.061Z,16.83
2019-03-30T17:00:59.506Z,14.37
2019-03-30T17:03:30.281Z,15.23
2019-03-30T17:06:00.877Z,15.63
2019-03-30T17:08:33.135Z,16.50
2019-03-30T17:11:03.886Z,18.20
2019-03-30T17:13:35.011Z,17.00
2019-03-30T17:16:05.754Z,23.90
2019-03-30T17:18:36.238Z,33.07
2019-03-30T17:21:06.845Z,29.57
2019-03-30T17:23:37.397Z,46.47
2019-03-30T17:26:07.900Z,27.83
2019-03-30T17:28:38.817Z,36.47
2019-03-30T17:31:09.820Z,59.13
2019-03-30T17:33:41.289Z,47.30
2019-03-30T17:36:13.430Z,29.43
2019-03-30T17:38:43.984Z,31.07
2019-03-30T17:41:14.630Z,41.03
2019-03-30T17:43:45.307Z,50.20
2019-03-30T17:46:17.211Z,37.77
2019-03-30T17:48:47.920Z,26.90
2019-03-30T17:51:19.030Z,28.20
2019-03-30T17:53:51.402Z,33.00
2019-03-30T17:56:22.052Z,43.43
2019-03-30T17:58:52.570Z,34.80
2019-03-30T18:01:23.261Z,37.80
2019-03-30T18:03:53.879Z,41.53
2019-03-30T18:06:24.631Z,35.27
2019-03-30T18:08:56.024Z,33.77
2019-03-30T18:11:26.813Z,29.47
2019-03-30T18:13:57.974Z,29.80
2019-03-30T18:16:29.107Z,28.63
2019-03-30T18:19:00.064Z,28.40
2019-03-30T18:21:30.972Z,26.17
2019-03-30T18:24:03.048Z,40.53
2019-03-30T18:26:36.382Z,46.90
2019-03-30T18:29:07.049Z,43.40
2019-03-30T18:31:37.817Z,35.60
2019-03-30T18:34:11.306Z,51.47
2019-03-30T18:36:41.734Z,56.30
2019-03-30T18:39:12.604Z,71.67
2019-03-30T18:41:43.382Z,67.30
2019-03-30T18:44:14.147Z,60.77
2019-03-30T18:46:45.095Z,71.27
2019-03-30T18:49:15.882Z,65.33
2019-03-30T18:51:46.450Z,68.23
2019-03-30T18:54:17.359Z,66.00
2019-03-30T18:56:48.184Z,63.30
2019-03-30T18:59:19.104Z,59.80
2019-03-30T19:01:49.624Z,57.50
2019-03-30T19:04:20.826Z,52.63
2019-03-30T19:06:51.980Z,50.37
2019-03-30T19:09:22.929Z,52.47
2019-03-30T19:11:53.687Z,51.30
2019-03-30T19:14:24.586Z,51.80
2019-03-30T19:16:55.100Z,52.10
2019-03-30T19:19:26.604Z,48.67
2019-03-30T19:21:57.228Z,48.70
2019-03-30T19:24:27.793Z,41.77
2019-03-30T19:26:58.757Z,42.13
2019-03-30T19:29:31.406Z,42.57
2019-03-30T19:32:02.628Z,47.70
2019-03-30T19:34:33.747Z,48.47
2019-03-30T19:37:04.888Z,46.03
2019-03-30T19:39:35.519Z,44.43
2019-03-30T19:42:06.170Z,47.50
2019-03-30T19:44:37.252Z,45.63
2019-03-30T19:47:08.145Z,43.03
2019-03-30T19:49:39.085Z,54.03
2019-03-30T19:52:10.301Z,50.13
2019-03-30T19:54:41.574Z,47.60
2019-03-30T19:57:12.556Z,49.00
2019-03-30T19:59:43.185Z,51.17
2019-03-30T20:02:15.244Z,37.63
2019-03-30T20:04:45.940Z,38.00
2019-03-30T20:07:18.423Z,29.77
2019-03-30T20:09:49.411Z,28.60
2019-03-30T20:12:20.236Z,34.07
2019-03-30T20:14:51.231Z,35.03
2019-03-30T20:17:21.914Z,35.33
2019-03-30T20:19:54.064Z,36.37
2019-03-30T20:22:24.897Z,36.60
2019-03-30T20:24:56.801Z,34.43
2019-03-30T20:27:28.030Z,34.93
2019-03-30T20:30:00.630Z,36.03
2019-03-30T20:32:31.277Z,37.07
2019-03-30T20:35:03.001Z,36.23
2019-03-30T20:37:33.569Z,35.20
2019-03-30T20:40:07.296Z,33.63
2019-03-30T20:42:38.521Z,32.97
2019-03-30T20:45:10.501Z,32.90
2019-03-30T20:47:41.262Z,30.80
2019-03-30T20:50:12.220Z,29.80
2019-03-30T20:52:43.734Z,31.10
2019-03-30T20:55:14.470Z,34.30
2019-03-30T20:57:46.007Z,33.33
2019-03-30T21:00:17.438Z,32.00
2019-03-30T21:02:48.204Z,31.90
2019-03-30T21:05:20.283Z,31.40
2019-03-30T21:07:51.114Z,33.43
2019-03-30T21:10:21.780Z,32.00
2019-03-30T21:12:52.729Z,33.00
2019-03-30T21:15:23.468Z,32.23
2019-03-30T21:17:55.006Z,31.40
2019-03-30T21:20:25.502Z,32.10
2019-03-30T21:22:56.980Z,32.00
2019-03-30T21:25:27.823Z,32.37
2019-03-30T21:27:58.660Z,31.63
2019-03-30T21:30:29.569Z,30.97
2019-03-30T21:33:00.186Z,31.97
2019-03-30T21:35:31.714Z,33.40
2019-03-30T21:38:02.083Z,31.83
2019-03-30T21:40:32.575Z,31.60
2019-03-30T21:43:03.130Z,32.03
2019-03-30T21:45:33.923Z,30.13
2019-03-30T21:48:04.468Z,31.07
2019-03-30T21:50:35.308Z,29.27
2019-03-30T21:53:06.000Z,35.30
2019-03-30T21:55:37.064Z,31.97
2019-03-30T21:58:08.572Z,34.53
2019-03-30T22:03:15.856Z,32.33
2019-03-30T22:05:46.359Z,33.57
2019-03-30T22:08:17.410Z,30.67
2019-03-30T22:10:48.425Z,31.30
2019-03-30T22:13:21.528Z,32.67
2019-03-30T22:15:52.784Z,33.37
2019-03-30T22:18:25.652Z,33.57
2019-03-30T22:20:56.221Z,34.03
2019-03-30T22:23:26.817Z,34.47
2019-03-30T22:25:57.469Z,36.10
2019-03-30T22:28:29.583Z,37.30
2019-03-30T22:31:00.836Z,38.13
2019-03-30T22:33:31.916Z,36.80
2019-03-30T22:36:03.384Z,36.53
2019-03-30T22:38:33.863Z,37.90
2019-03-30T22:41:05.652Z,36.97
2019-03-30T22:43:36.494Z,38.23
2019-03-30T22:46:07.720Z,36.00
2019-03-30T22:48:38.659Z,36.67
2019-03-30T22:51:09.266Z,36.40
2019-03-30T22:53:39.998Z,40.10
2019-03-30T22:56:11.385Z,35.33
2019-03-30T22:58:41.893Z,35.03
2019-03-30T23:01:14.026Z,35.07
2019-03-30T23:03:46.069Z,34.33
2019-03-30T23:06:16.634Z,35.60
2019-03-30T23:08:47.208Z,35.47
2019-03-30T23:11:17.966Z,35.13
2019-03-30T23:13:48.525Z,35.13
2019-03-30T23:16:19.055Z,34.93
2019-03-30T23:18:49.425Z,42.47
2019-03-30T23:21:19.802Z,47.57
2019-03-30T23:23:50.336Z,51.97
2019-03-30T23:26:20.788Z,54.60
2019-03-30T23:28:51.759Z,52.50
2019-03-30T23:31:22.588Z,49.27
2019-03-30T23:33:53.159Z,42.03
2019-03-30T23:36:24.497Z,40.60
2019-03-30T23:38:55.011Z,38.43
2019-03-30T23:41:25.718Z,36.77
2019-03-30T23:43:56.387Z,40.77
2019-03-30T23:46:26.851Z,36.10
2019-03-30T23:48:57.330Z,36.93
2019-03-30T23:51:28.952Z,36.57
2019-03-30T23:53:59.567Z,31.83
2019-03-30T23:56:30.412Z,34.43
2019-03-30T23:59:01.314Z,33.97
